createdAt,value
2023-04-12T00:04:13.878Z,0
2023-04-12T00:13:39.299Z,0
2023-04-12T00:18:21.996Z,0
2023-04-12T00:23:04.708Z,0
2023-04-12T00:27:47.539Z,0
2023-04-12T00:37:12.977Z,0
2023-04-12T00:46:38.415Z,0
2023-04-12T00:56:03.951Z,0
2023-04-12T01:00:46.671Z,0
2023-04-12T01:05:29.397Z,0
2023-04-12T01:10:11.505Z,0
2023-04-12T01:19:36.841Z,0
2023-04-12T01:24:19.607Z,0
2023-04-12T01:29:02.299Z,0
2023-04-12T01:38:27.810Z,0
2023-04-12T01:43:10.533Z,0
2023-04-12T01:47:53.247Z,0
2023-04-12T02:02:01.405Z,0
2023-04-12T02:06:44.118Z,0
2023-04-12T02:11:26.140Z,0
2023-04-12T02:20:51.701Z,0
2023-04-12T02:25:34.511Z,0
2023-04-12T02:30:17.127Z,0
2023-04-12T02:34:59.832Z,0
2023-04-12T02:44:25.271Z,0
2023-04-12T02:49:07.989Z,0
2023-04-12T02:53:50.822Z,0
2023-04-12T03:07:59.036Z,0
2023-04-12T03:12:41.684Z,0
2023-04-12T03:17:24.417Z,0
2023-04-12T03:26:49.931Z,0
2023-04-12T03:31:32.664Z,0
2023-04-12T03:36:15.378Z,0
2023-04-12T03:45:40.112Z,0
2023-04-12T03:50:22.831Z,0
2023-04-12T03:55:05.668Z,0
2023-04-12T03:59:48.284Z,0
2023-04-12T04:09:13.816Z,0
2023-04-12T04:18:39.250Z,0
2023-04-12T04:23:21.963Z,0
2023-04-12T04:28:04.677Z,0
2023-04-12T04:32:47.436Z,5
2023-04-12T04:37:30.112Z,11
2023-04-12T04:42:12.165Z,16
2023-04-12T04:51:37.688Z,28
2023-04-12T05:01:03.106Z,45
2023-04-12T05:05:45.151Z,56
2023-04-12T05:10:27.848Z,61
2023-04-12T05:15:10.558Z,67
2023-04-12T05:19:53.283Z,84
2023-04-12T05:29:18.711Z,101
2023-04-12T05:34:01.538Z,123
2023-04-12T05:38:44.335Z,140
2023-04-12T05:43:26.984Z,151
2023-04-12T05:48:09.696Z,151
2023-04-12T05:52:52.510Z,168
2023-04-12T05:57:35.133Z,196
2023-04-12T06:02:17.852Z,196
2023-04-12T06:06:59.939Z,202
2023-04-12T06:11:42.638Z,225
2023-04-12T06:16:25.443Z,225
2023-04-12T06:21:08.144Z,163
2023-04-12T06:25:50.851Z,135
2023-04-12T06:39:59.069Z,95
2023-04-12T06:44:41.732Z,129
2023-04-12T06:49:24.690Z,185
2023-04-12T07:03:32.805Z,354
2023-04-12T07:08:15.416Z,450
2023-04-12T07:12:58.125Z,483
2023-04-12T07:22:23.601Z,309
2023-04-12T07:27:06.454Z,450
2023-04-12T07:31:49.198Z,331
2023-04-12T07:36:31.922Z,292
2023-04-12T07:41:14.627Z,219
2023-04-12T07:50:39.986Z,236
2023-04-12T07:55:22.704Z,270
2023-04-12T08:00:05.524Z,247
2023-04-12T08:04:47.504Z,241
2023-04-12T08:09:30.327Z,292
2023-04-12T08:14:13.026Z,348
2023-04-12T08:18:55.694Z,495
2023-04-12T08:23:38.460Z,360
2023-04-12T08:28:21.135Z,466
2023-04-12T08:33:03.869Z,714
2023-04-12T08:37:46.627Z,720
2023-04-12T08:42:29.437Z,720
2023-04-12T08:47:12.205Z,590
2023-04-12T08:51:54.832Z,770
2023-04-12T09:01:20.392Z,590
2023-04-12T09:06:03.137Z,641
2023-04-12T09:10:45.261Z,714
2023-04-12T09:15:27.877Z,590
2023-04-12T09:20:10.581Z,658
2023-04-12T09:24:53.163Z,697
2023-04-12T09:29:35.938Z,686
2023-04-12T09:34:18.873Z,635
2023-04-12T09:39:00.851Z,568
2023-04-12T09:43:43.589Z,556
2023-04-12T09:48:26.170Z,478
2023-04-12T09:53:08.175Z,523
2023-04-12T09:57:50.911Z,506
2023-04-12T10:02:33.616Z,528
2023-04-12T10:11:59.044Z,416
2023-04-12T10:16:41.862Z,405
2023-04-12T10:21:24.596Z,663
2023-04-12T10:26:07.320Z,798
2023-04-12T10:35:32.742Z,388
2023-04-12T10:40:14.776Z,433
2023-04-12T10:44:57.583Z,596
2023-04-12T10:49:40.308Z,658
2023-04-12T10:54:22.269Z,1063
2023-04-12T10:59:05.139Z,945
2023-04-12T11:08:30.481Z,736
2023-04-12T11:13:13.216Z,787
2023-04-12T11:27:21.356Z,534
2023-04-12T11:41:29.608Z,900
2023-04-12T11:46:12.324Z,534
2023-04-12T12:00:20.616Z,450
2023-04-12T12:05:02.675Z,714
2023-04-12T12:09:45.224Z,483
2023-04-12T12:14:27.935Z,523
2023-04-12T12:19:10.758Z,1057
2023-04-12T12:23:53.650Z,573
2023-04-12T12:38:01.648Z,663
2023-04-12T12:42:44.357Z,556
2023-04-12T12:47:27.077Z,545
2023-04-12T12:52:09.953Z,450
2023-04-12T12:56:52.515Z,781
2023-04-12T13:01:34.339Z,596
2023-04-12T13:06:15.948Z,444
2023-04-12T13:10:58.490Z,309
2023-04-12T13:15:40.881Z,348
2023-04-12T13:20:23.513Z,258
2023-04-12T13:25:05.925Z,343
2023-04-12T13:53:20.833Z,326
2023-04-12T13:58:03.270Z,208
2023-04-12T14:02:45.816Z,157
2023-04-12T14:07:28.342Z,253
2023-04-12T14:12:10.716Z,196
2023-04-12T14:21:35.751Z,106
2023-04-12T14:26:18.257Z,157
2023-04-12T14:31:00.765Z,140
2023-04-12T14:45:08.169Z,388
2023-04-12T14:49:50.654Z,568
2023-04-12T14:54:33.339Z,292
2023-04-12T14:59:15.578Z,545
2023-04-12T15:08:40.619Z,551
2023-04-12T15:13:23.040Z,388
2023-04-12T15:18:05.554Z,663
2023-04-12T15:22:47.997Z,483
2023-04-12T15:27:30.540Z,410
2023-04-12T15:32:13.020Z,388
2023-04-12T15:36:55.558Z,298
2023-04-12T15:41:37.954Z,416
2023-04-12T15:46:20.477Z,393
2023-04-12T15:55:45.458Z,185
2023-04-12T16:00:27.028Z,191
2023-04-12T16:05:09.545Z,241
2023-04-12T16:09:51.974Z,219
2023-04-12T16:14:34.548Z,270
2023-04-12T16:19:17.005Z,365
2023-04-12T16:23:59.426Z,495
2023-04-12T16:28:41.961Z,315
2023-04-12T16:33:24.484Z,326
2023-04-12T16:42:49.419Z,258
2023-04-12T16:47:31.833Z,180
2023-04-12T16:52:14.739Z,151
2023-04-12T16:56:57.043Z,106
2023-04-12T17:01:39.290Z,101
2023-04-12T17:06:21.959Z,95
2023-04-12T17:11:04.436Z,90
2023-04-12T17:15:46.731Z,45
2023-04-12T17:20:29.255Z,28
2023-04-12T17:29:53.390Z,61
2023-04-12T17:34:35.808Z,45
2023-04-12T17:39:18.325Z,11
2023-04-12T17:44:00.853Z,5
2023-04-12T17:48:43.256Z,5
2023-04-12T17:58:08.307Z,0
2023-04-12T18:02:50.730Z,0
2023-04-12T18:07:33.238Z,0
2023-04-12T18:16:58.184Z,0
2023-04-12T18:21:40.702Z,0
2023-04-12T18:26:23.216Z,0
2023-04-12T18:31:05.639Z,0
2023-04-12T18:35:48.157Z,0
2023-04-12T18:45:12.234Z,0
2023-04-12T18:49:54.718Z,0
2023-04-12T18:54:37.223Z,0
2023-04-12T18:59:19.660Z,0
2023-04-12T19:04:02.174Z,0
2023-04-12T19:08:44.690Z,0
2023-04-12T19:13:27.102Z,0
2023-04-12T19:18:09.695Z,0
2023-04-12T19:22:52.149Z,0
2023-04-12T19:32:17.088Z,0
2023-04-12T19:36:59.603Z,0
2023-04-12T19:41:42.030Z,0
2023-04-12T19:51:06.153Z,0
2023-04-12T19:55:48.677Z,0
2023-04-12T20:00:31.096Z,0
2023-04-12T20:05:13.612Z,0
2023-04-12T20:09:56.139Z,0
2023-04-12T20:19:21.064Z,0
2023-04-12T20:24:03.578Z,0
2023-04-12T20:28:46.009Z,0
2023-04-12T20:38:11.046Z,0
2023-04-12T20:42:53.465Z,0
2023-04-12T20:47:35.984Z,0
2023-04-12T20:52:18.500Z,0
2023-04-12T20:57:00.923Z,0
2023-04-12T21:01:42.538Z,0
2023-04-12T21:06:25.066Z,0
2023-04-12T21:11:07.579Z,0
2023-04-12T21:15:49.995Z,0
2023-04-12T21:25:15.037Z,0
2023-04-12T21:29:57.459Z,0
2023-04-12T21:34:39.981Z,0
2023-04-12T21:39:22.491Z,0
2023-04-12T21:44:04.919Z,0
2023-04-12T21:48:47.426Z,0
2023-04-12T21:53:29.958Z,0
2023-04-12T21:58:12.376Z,0
2023-04-12T22:02:54.900Z,0
2023-04-12T22:12:19.031Z,0
2023-04-12T22:17:01.441Z,0
2023-04-12T22:21:43.973Z,0
2023-04-12T22:26:26.487Z,0
2023-04-12T22:31:08.905Z,0
2023-04-12T22:35:51.420Z,0
2023-04-12T22:40:33.948Z,0
2023-04-12T22:45:16.353Z,0
2023-04-12T22:49:58.878Z,0
2023-04-12T22:59:23.817Z,0
2023-04-12T23:04:06.333Z,0
2023-04-12T23:08:48.852Z,0
2023-04-12T23:13:31.266Z,0
2023-04-12T23:18:13.788Z,0
2023-04-12T23:22:56.317Z,0
2023-04-12T23:27:38.731Z,0
2023-04-12T23:32:21.247Z,0
2023-04-12T23:37:03.770Z,0
2023-04-12T23:46:28.719Z,0
2023-04-12T23:51:11.231Z,0
2023-04-12T23:55:53.647Z,0
